Time;durP1;ratioP1;P1;durP2;ratioP2;P2;SDS_P1;SDS_P2;PMS_P1;PMS_P2;Temp;Humidity;BMP_temperature;BMP_pressure;BME280_temperature;BME280_humidity;BME280_pressure;Samples;Min_cycle;Max_cycle;Signal;HPM_P1;HPM_P2
2022/04/03 00:00:21;;;;;;;;;;;;;;;5.77;45.77;101630.13;5032476;28;20362;-76
2022/04/03 00:02:46;;;;;;;;;;;;;;;5.78;44.81;101638.72;5023834;28;20111;-75
2022/04/03 00:05:12;;;;;;;;;;;;;;;5.75;44.95;101623.22;5025349;28;19944;-80
2022/04/03 00:07:37;;;;;;;;;;;;;;;5.57;45.22;101634.16;5028999;28;20301;-80
2022/04/03 00:10:03;;;;;;;;;;;;;;;5.77;44.49;101642.19;5024583;28;19921;-81
2022/04/03 00:12:28;;;;;;;;;;;;;;;5.34;46.77;101638.16;5028852;28;19977;-80
2022/04/03 00:14:53;;;;;;;;;;;;;;;5.82;45.00;101630.19;5029873;28;19925;-79
2022/04/03 00:17:19;;;;;;;;;;;;;;;6.04;45.87;101633.03;5026792;28;20471;-80
2022/04/03 00:19:44;;;;;;;;;;;;;;;5.87;45.99;101633.69;5026680;28;19928;-80
2022/04/03 00:22:11;;;;;;;;;;;;;;;5.70;46.06;101635.19;5023702;28;19924;-75
2022/04/03 00:24:36;;;;;;;;;;;;;;;5.62;45.77;101634.25;5022054;28;19921;-76
2022/04/03 00:27:01;;;;;;;;;;;;;;;5.76;46.06;101635.28;5033926;28;19921;-77
2022/04/03 00:29:27;;;;;;;;;;;;;;;5.87;46.28;101636.25;5030611;28;20331;-79
2022/04/03 00:31:52;;;;;;;;;;;;;;;5.58;45.53;101641.06;5033695;28;20397;-79
2022/04/03 00:34:17;;;;;;;;;;;;;;;5.64;45.57;101633.41;5025726;28;20084;-80
2022/04/03 00:36:43;;;;;;;;;;;;;;;5.74;45.49;101636.97;5034702;28;19928;-80
2022/04/03 00:39:08;;;;;;;;;;;;;;;5.80;46.32;101640.47;5023868;28;19927;-80
2022/04/03 00:41:34;;;;;;;;;;;;;;;5.70;45.99;101641.22;5033895;28;19959;-75
2022/04/03 00:43:59;;;;;;;;;;;;;;;5.87;44.66;101644.88;5062945;28;19921;-76
2022/04/03 00:46:26;;;;;;;;;;;;;;;5.82;45.61;101643.97;5028879;28;19925;-79
2022/04/03 00:48:52;;;;;;;;;;;;;;;5.62;45.43;101637.69;5029486;28;19921;-79
2022/04/03 00:51:18;;;;;;;;;;;;;;;5.66;45.50;101642.03;5030460;28;19963;-79
2022/04/03 00:53:43;;;;;;;;;;;;;;;5.85;44.96;101641.41;5027469;28;19925;-75
2022/04/03 00:56:08;;;;;;;;;;;;;;;5.69;45.53;101651.50;5028159;28;20298;-80
2022/04/03 00:58:35;;;;;;;;;;;;;;;5.50;46.68;101647.84;5020868;28;19956;-79
2022/04/03 01:01:00;;;;;;;;;;;;;;;5.81;45.96;101654.25;5024550;28;19925;-80
2022/04/03 01:03:26;;;;;;;;;;;;;;;5.65;46.59;101642.03;5021990;28;19921;-76
2022/04/03 01:05:52;;;;;;;;;;;;;;;5.75;45.71;101651.59;5020772;28;19927;-76
2022/04/03 01:08:18;;;;;;;;;;;;;;;5.34;45.95;101651.03;5019158;28;20591;-79
2022/04/03 01:10:43;;;;;;;;;;;;;;;5.54;44.66;101653.88;5030912;28;20018;-80
2022/04/03 01:13:10;;;;;;;;;;;;;;;5.69;45.16;101654.94;5028573;28;19921;-80
2022/04/03 01:15:35;;;;;;;;;;;;;;;5.61;44.92;101651.41;5028698;28;20012;-77
2022/04/03 01:18:00;;;;;;;;;;;;;;;5.58;45.08;101650.50;5033666;28;20311;-77
2022/04/03 01:20:26;;;;;;;;;;;;;;;5.70;46.35;101646.38;5027085;28;19932;-77
2022/04/03 01:22:51;;;;;;;;;;;;;;;5.59;47.73;101650.53;5033303;28;19917;-79
2022/04/03 01:25:16;;;;;;;;;;;;;;;5.62;45.81;101650.59;5037531;28;19918;-79
2022/04/03 01:27:42;;;;;;;;;;;;;;;5.53;46.68;101660.75;5028010;28;19921;-78
2022/04/03 01:30:10;;;;;;;;;;;;;;;5.69;46.28;101651.50;5030244;28;19925;-75
2022/04/03 01:32:36;;;;;;;;;;;;;;;5.77;45.64;101657.66;5034072;28;19928;-76
2022/04/03 01:35:01;;;;;;;;;;;;;;;5.79;45.25;101656.81;5029691;28;19925;-77
2022/04/03 01:37:26;;;;;;;;;;;;;;;5.76;46.66;101658.47;5032725;28;19921;-77
2022/04/03 01:39:51;;;;;;;;;;;;;;;5.66;46.22;101659.19;5027149;28;19921;-77
2022/04/03 01:42:17;;;;;;;;;;;;;;;5.84;46.82;101655.16;5036593;28;19968;-77
2022/04/03 01:44:42;;;;;;;;;;;;;;;5.61;48.05;101660.84;5020457;28;20658;-80
2022/04/03 01:47:07;;;;;;;;;;;;;;;5.61;47.88;101653.13;5003626;28;19922;-80
2022/04/03 01:49:33;;;;;;;;;;;;;;;5.64;47.26;101648.88;5009992;28;19925;-79
2022/04/03 01:51:58;;;;;;;;;;;;;;;5.65;47.95;101654.91;5034758;28;20297;-80
2022/04/03 01:54:24;;;;;;;;;;;;;;;5.80;47.30;101655.09;5029308;28;19932;-80
2022/04/03 01:56:49;;;;;;;;;;;;;;;5.61;47.29;101651.41;5032975;28;19921;-80
2022/04/03 01:59:14;;;;;;;;;;;;;;;5.64;47.62;101651.47;5030383;28;20386;-75
2022/04/03 02:01:39;;;;;;;;;;;;;;;5.61;47.35;101650.53;5034960;28;19966;-76
2022/04/03 02:04:05;;;;;;;;;;;;;;;5.83;47.78;101653.41;5028644;28;20361;-75
2022/04/03 02:06:31;;;;;;;;;;;;;;;5.73;47.66;101651.56;5031499;28;20794;-76
2022/04/03 02:08:56;;;;;;;;;;;;;;;5.89;46.89;101655.22;5031011;28;20287;-80
2022/04/03 02:11:21;;;;;;;;;;;;;;;5.57;47.83;101648.75;5029095;28;20397;-75
2022/04/03 02:13:47;;;;;;;;;;;;;;;5.57;47.06;101648.75;5037166;28;20437;-80
2022/04/03 02:16:13;;;;;;;;;;;;;;;5.67;48.00;101653.22;5031396;28;19917;-78
2022/04/03 02:18:39;;;;;;;;;;;;;;;5.51;47.44;101661.56;5035434;28;19921;-77
2022/04/03 02:21:04;;;;;;;;;;;;;;;5.56;46.30;101660.81;5043294;28;19973;-80
2022/04/03 02:23:29;;;;;;;;;;;;;;;5.78;46.87;101662.81;5027585;28;20333;-78
2022/04/03 02:25:54;;;;;;;;;;;;;;;5.66;44.44;101659.19;5038493;28;20393;-79
2022/04/03 02:28:20;;;;;;;;;;;;;;;5.72;46.19;101664.44;5037961;28;19921;-79
2022/04/03 02:30:46;;;;;;;;;;;;;;;5.29;46.54;101665.56;5035515;28;19928;-77
2022/04/03 02:33:11;;;;;;;;;;;;;;;5.46;47.05;101672.69;5029827;28;20031;-76
2022/04/03 02:35:36;;;;;;;;;;;;;;;5.50;45.39;101660.72;5028808;28;19928;-75
2022/04/03 02:38:02;;;;;;;;;;;;;;;5.47;45.16;101665.84;5033666;28;19921;-76
2022/04/03 02:40:27;;;;;;;;;;;;;;;5.59;46.26;101654.81;5028172;28;19917;-80
2022/04/03 02:42:52;;;;;;;;;;;;;;;5.47;45.29;101658.09;5033933;28;19928;-80
2022/04/03 02:45:18;;;;;;;;;;;;;;;5.63;45.34;101656.56;5034059;28;19968;-77
2022/04/03 02:47:52;;;;;;;;;;;;;;;5.45;47.13;101658.06;5016095;28;19921;-79
2022/04/03 02:50:19;;;;;;;;;;;;;;;5.45;46.34;101658.06;5045093;28;19933;-77
2022/04/03 02:52:45;;;;;;;;;;;;;;;5.62;45.01;101652.28;5029198;28;19951;-77
2022/04/03 02:55:11;;;;;;;;;;;;;;;5.73;46.21;101664.47;5022632;28;19956;-77
2022/04/03 02:57:36;;;;;;;;;;;;;;;5.72;46.53;101649.84;5023894;28;19968;-77
2022/04/03 03:00:03;;;;;;;;;;;;;;;5.51;46.50;101664.13;5023919;28;20329;-77
2022/04/03 03:02:28;;;;;;;;;;;;;;;5.55;46.01;101660.78;5027311;28;20302;-76
2022/04/03 03:04:54;;;;;;;;;;;;;;;5.81;46.77;101662.84;5032948;28;19921;-76
2022/04/03 03:07:21;;;;;;;;;;;;;;;5.73;46.69;101661.88;5022695;28;20017;-76
2022/04/03 03:09:46;;;;;;;;;;;;;;;5.55;46.52;101651.34;5024456;28;20354;-76
2022/04/03 03:12:11;;;;;;;;;;;;;;;5.42;46.30;101665.75;5029830;28;20008;-75
2022/04/03 03:14:36;;;;;;;;;;;;;;;5.68;46.08;101660.09;5020217;28;19975;-80
2022/04/03 03:17:03;;;;;;;;;;;;;;;5.67;46.97;101663.50;5026443;28;19925;-80
2022/04/03 03:19:28;;;;;;;;;;;;;;;5.67;47.06;101664.38;5022558;28;19927;-80
2022/04/03 03:21:53;;;;;;;;;;;;;;;5.62;46.34;101668.63;5034376;28;20378;-80
2022/04/03 03:24:19;;;;;;;;;;;;;;;5.72;47.70;101667.00;5028116;28;19932;-80
2022/04/03 03:26:44;;;;;;;;;;;;;;;5.60;47.75;101666.84;5021220;28;19925;-76
2022/04/03 03:29:09;;;;;;;;;;;;;;;5.65;48.28;101671.25;5031074;28;20492;-75
2022/04/03 03:31:35;;;;;;;;;;;;;;;5.82;47.86;101672.31;5028846;28;19952;-79
2022/04/03 03:34:00;;;;;;;;;;;;;;;5.55;47.35;101666.78;5031351;28;21769;-79
2022/04/03 03:36:25;;;;;;;;;;;;;;;5.44;47.34;101664.06;5029963;28;19929;-79
2022/04/03 03:38:51;;;;;;;;;;;;;;;5.65;47.16;101671.25;5029032;28;19932;-80
2022/04/03 03:41:16;;;;;;;;;;;;;;;5.44;49.08;101673.53;5021621;28;19921;-80
2022/04/03 03:43:42;;;;;;;;;;;;;;;5.47;47.99;101669.25;5028917;28;19936;-80
2022/04/03 03:46:08;;;;;;;;;;;;;;;5.54;48.83;101672.78;5004046;28;20373;-76
2022/04/03 03:48:34;;;;;;;;;;;;;;;5.57;47.19;101669.38;4994535;28;19991;-75
2022/04/03 03:50:59;;;;;;;;;;;;;;;5.42;48.30;101668.31;5007307;28;19957;-76
2022/04/03 03:53:24;;;;;;;;;;;;;;;5.58;46.49;101668.53;5003243;28;20330;-75
2022/04/03 03:55:50;;;;;;;;;;;;;;;5.40;48.32;101671.72;5008566;28;19921;-76
2022/04/03 03:58:15;;;;;;;;;;;;;;;5.61;48.90;101672.03;5024493;28;19918;-80
2022/04/03 04:00:41;;;;;;;;;;;;;;;5.53;49.27;101678.81;5028213;28;19936;-79
2022/04/03 04:03:06;;;;;;;;;;;;;;;5.48;50.39;101676.16;5037079;28;19932;-79
2022/04/03 04:05:32;;;;;;;;;;;;;;;5.47;50.25;101679.56;5032429;28;19991;-79
2022/04/03 04:07:57;;;;;;;;;;;;;;;5.44;50.71;101682.09;5026979;28;19917;-79
2022/04/03 04:10:23;;;;;;;;;;;;;;;5.51;49.70;101672.75;5027173;28;20020;-76
2022/04/03 04:12:48;;;;;;;;;;;;;;;5.01;50.49;101684.88;5028339;28;19924;-77
2022/04/03 04:15:14;;;;;;;;;;;;;;;5.27;51.65;101685.25;5025648;28;19941;-77
2022/04/03 04:17:46;;;;;;;;;;;;;;;5.19;51.96;101697.16;5015066;28;20008;-75
2022/04/03 04:20:13;;;;;;;;;;;;;;;5.38;50.34;101694.91;5025856;28;20072;-76
2022/04/03 04:22:42;;;;;;;;;;;;;;;5.19;49.83;101692.88;5039822;28;19924;-75
2022/04/03 04:25:08;;;;;;;;;;;;;;;5.27;49.78;101688.72;5027033;28;20381;-80
2022/04/03 04:27:34;;;;;;;;;;;;;;;5.37;49.85;101692.31;5021285;28;19932;-80
2022/04/03 04:29:59;;;;;;;;;;;;;;;5.21;51.21;101695.47;5023780;28;19921;-79
2022/04/03 04:32:24;;;;;;;;;;;;;;;5.23;50.91;101704.09;5023373;28;20034;-75
2022/04/03 04:34:50;;;;;;;;;;;;;;;5.40;49.72;101706.09;5028194;28;19928;-76
2022/04/03 04:37:17;;;;;;;;;;;;;;;5.16;51.16;101710.00;5036996;28;20153;-80
2022/04/03 04:39:43;;;;;;;;;;;;;;;5.19;51.84;101707.47;5030991;28;20341;-79
2022/04/03 04:42:08;;;;;;;;;;;;;;;5.40;51.31;101703.53;5026559;28;19921;-76
2022/04/03 04:44:34;;;;;;;;;;;;;;;5.31;49.39;101711.13;5029076;28;20594;-80
2022/04/03 04:46:59;;;;;;;;;;;;;;;5.36;48.69;101716.31;5036744;28;19921;-80
2022/04/03 04:49:25;;;;;;;;;;;;;;;5.24;49.30;101713.56;5027389;28;19917;-80
2022/04/03 04:51:50;;;;;;;;;;;;;;;5.22;50.58;101723.84;5029659;28;19920;-80
2022/04/03 04:54:15;;;;;;;;;;;;;;;5.35;50.55;101722.34;5025882;28;20005;-80
2022/04/03 04:56:41;;;;;;;;;;;;;;;5.15;51.51;101723.75;5019098;28;20377;-80
2022/04/03 04:59:06;;;;;;;;;;;;;;;5.26;50.99;101727.34;5024041;28;20302;-75
2022/04/03 05:01:32;;;;;;;;;;;;;;;5.18;50.37;101727.19;5019773;28;20000;-76
2022/04/03 05:03:57;;;;;;;;;;;;;;;5.29;50.17;101725.69;5026997;28;20425;-75
2022/04/03 05:06:26;;;;;;;;;;;;;;;5.10;51.31;101726.22;5025490;28;19933;-75
2022/04/03 05:08:52;;;;;;;;;;;;;;;5.16;49.83;101731.47;5031725;28;19928;-76
2022/04/03 05:11:17;;;;;;;;;;;;;;;5.20;49.59;101737.53;5035089;28;19920;-75
2022/04/03 05:13:43;;;;;;;;;;;;;;;5.32;48.46;101736.03;5031863;28;20310;-77
2022/04/03 05:16:08;;;;;;;;;;;;;;;5.44;49.12;101733.63;5039924;28;19982;-77
2022/04/03 05:18:35;;;;;;;;;;;;;;;5.45;48.94;101735.38;5030652;28;19929;-77
2022/04/03 05:21:01;;;;;;;;;;;;;;;5.11;49.93;101742.53;5033331;28;19929;-77
2022/04/03 05:23:26;;;;;;;;;;;;;;;5.28;50.19;101741.97;5020217;28;19925;-77
2022/04/03 05:25:52;;;;;;;;;;;;;;;5.43;49.55;101747.38;5027184;28;19921;-79
2022/04/03 05:28:17;;;;;;;;;;;;;;;5.11;48.58;101750.28;5024632;28;19936;-80
2022/04/03 05:30:43;;;;;;;;;;;;;;;5.30;50.33;101753.16;5024236;28;19925;-75
2022/04/03 05:33:08;;;;;;;;;;;;;;;5.11;50.00;101750.28;5032095;28;19921;-76
2022/04/03 05:35:33;;;;;;;;;;;;;;;5.31;49.79;101759.19;5014325;28;19933;-80
2022/04/03 05:37:59;;;;;;;;;;;;;;;5.55;50.24;101754.41;5021352;28;19925;-80
2022/04/03 05:40:24;;;;;;;;;;;;;;;5.50;50.84;101770.66;5022811;28;19928;-80
2022/04/03 05:42:49;;;;;;;;;;;;;;;5.51;50.26;101757.78;5023252;28;21596;-80
2022/04/03 05:45:15;;;;;;;;;;;;;;;5.55;49.76;101766.44;5022766;28;19925;-80
2022/04/03 05:47:40;;;;;;;;;;;;;;;5.17;50.63;101771.84;5022453;28;20325;-75
2022/04/03 05:50:06;;;;;;;;;;;;;;;5.58;49.21;101772.50;5027798;28;19995;-76
2022/04/03 05:52:38;;;;;;;;;;;;;;;5.49;49.80;101774.94;5026481;28;20334;-75
2022/04/03 05:55:04;;;;;;;;;;;;;;;5.63;49.50;101773.44;5030046;28;19963;-75
2022/04/03 05:57:29;;;;;;;;;;;;;;;5.48;49.47;101780.94;5029752;28;20390;-79
2022/04/03 05:59:54;;;;;;;;;;;;;;;5.62;50.10;101771.72;5027601;28;19922;-80
2022/04/03 06:02:19;;;;;;;;;;;;;;;5.57;49.61;101783.66;5032304;28;19957;-76
2022/04/03 06:04:45;;;;;;;;;;;;;;;5.32;50.24;101785.00;5029642;28;19917;-78
2022/04/03 06:07:11;;;;;;;;;;;;;;;5.31;49.97;101787.53;5029341;28;19921;-80
2022/04/03 06:09:36;;;;;;;;;;;;;;;5.54;49.86;101787.88;5024304;28;19928;-80
2022/04/03 06:12:01;;;;;;;;;;;;;;;5.32;50.02;101792.72;5033386;28;19940;-80
2022/04/03 06:14:27;;;;;;;;;;;;;;;5.46;49.20;101785.19;5033705;28;20362;-75
2022/04/03 06:16:52;;;;;;;;;;;;;;;5.23;50.61;101792.56;5031059;28;19929;-77
2022/04/03 06:19:17;;;;;;;;;;;;;;;5.55;50.30;101787.06;5031478;28;19917;-81
2022/04/03 06:21:42;;;;;;;;;;;;;;;5.69;49.47;101795.84;5028943;28;19929;-81
2022/04/03 06:24:08;;;;;;;;;;;;;;;5.48;50.54;101789.53;5025508;28;19928;-76
2022/04/03 06:26:33;;;;;;;;;;;;;;;5.55;50.86;101784.47;5034229;28;19953;-77
2022/04/03 06:28:58;;;;;;;;;;;;;;;5.49;51.24;101792.97;5037426;28;19929;-77
2022/04/03 06:31:24;;;;;;;;;;;;;;;5.85;50.11;101785.81;5029527;28;19924;-76
2022/04/03 06:33:49;;;;;;;;;;;;;;;5.44;49.00;101785.16;5035156;28;20290;-75
2022/04/03 06:36:14;;;;;;;;;;;;;;;5.47;49.41;101795.50;5041104;28;19925;-76
2022/04/03 06:38:39;;;;;;;;;;;;;;;5.29;51.14;101800.41;5032760;28;20408;-80
2022/04/03 06:41:07;;;;;;;;;;;;;;;5.15;50.60;101795.84;5036819;28;19922;-80
2022/04/03 06:43:33;;;;;;;;;;;;;;;5.38;50.42;101797.97;5046189;28;20000;-80
2022/04/03 06:45:58;;;;;;;;;;;;;;;5.47;49.93;101803.25;5030380;28;19917;-80
2022/04/03 06:48:24;;;;;;;;;;;;;;;5.35;49.93;101799.63;5020654;28;20304;-81
2022/04/03 06:50:49;;;;;;;;;;;;;;;5.64;49.88;101798.38;5032655;28;19921;-80
2022/04/03 06:53:15;;;;;;;;;;;;;;;5.08;50.43;101812.91;5034910;28;19921;-80
2022/04/03 06:55:40;;;;;;;;;;;;;;;5.54;49.39;101814.53;5020336;28;19949;-80
2022/04/03 06:58:06;;;;;;;;;;;;;;;5.61;48.86;101808.63;5027106;28;19925;-80
2022/04/03 07:00:31;;;;;;;;;;;;;;;5.57;48.86;101804.28;5032372;28;19964;-77
2022/04/03 07:02:56;;;;;;;;;;;;;;;5.64;48.45;101812.97;5028175;28;20908;-75
2022/04/03 07:05:22;;;;;;;;;;;;;;;5.37;48.39;101813.38;5030038;28;19921;-75
2022/04/03 07:07:50;;;;;;;;;;;;;;;4.92;50.15;101826.31;5027571;28;19929;-75
2022/04/03 07:10:16;;;;;;;;;;;;;;;5.33;49.31;101822.78;5028990;28;20332;-75
2022/04/03 07:12:41;;;;;;;;;;;;;;;5.38;49.56;101821.16;5020594;28;19921;-75
2022/04/03 07:15:11;;;;;;;;;;;;;;;5.52;49.67;101823.97;5030271;28;20028;-75
2022/04/03 07:17:37;;;;;;;;;;;;;;;5.57;50.13;101822.31;5027107;28;19922;-75
2022/04/03 07:20:02;;;;;;;;;;;;;;;5.30;49.34;101833.03;5026074;28;19929;-80
2022/04/03 07:22:27;;;;;;;;;;;;;;;5.30;49.00;101820.16;5030687;28;19920;-81
2022/04/03 07:24:53;;;;;;;;;;;;;;;5.10;49.44;101834.38;5031800;28;19928;-80
2022/04/03 07:27:18;;;;;;;;;;;;;;;5.76;48.79;101831.22;5028933;28;19991;-80
2022/04/03 07:29:43;;;;;;;;;;;;;;;5.85;48.21;101829.66;5037780;28;19921;-80
2022/04/03 07:32:09;;;;;;;;;;;;;;;5.56;48.08;101832.63;5032315;28;19941;-78
2022/04/03 07:34:34;;;;;;;;;;;;;;;5.66;46.85;101832.78;5037311;28;19975;-77
2022/04/03 07:36:59;;;;;;;;;;;;;;;5.53;47.27;101829.97;5029831;28;20323;-77
2022/04/03 07:39:28;;;;;;;;;;;;;;;5.74;46.28;101827.75;5037720;28;20004;-79
2022/04/03 07:41:53;;;;;;;;;;;;;;;5.65;46.71;101837.91;5031453;28;20401;-80
2022/04/03 07:44:18;;;;;;;;;;;;;;;5.61;46.71;101841.28;5035501;28;19963;-79
2022/04/03 07:46:44;;;;;;;;;;;;;;;5.31;48.58;101841.63;5030028;28;19959;-80
2022/04/03 07:49:10;;;;;;;;;;;;;;;5.47;47.57;101844.47;5027095;28;19945;-80
2022/04/03 07:51:36;;;;;;;;;;;;;;;5.46;47.76;101845.34;5028515;28;19940;-80
2022/04/03 07:54:01;;;;;;;;;;;;;;;5.75;47.51;101852.66;5029576;28;19931;-80
2022/04/03 07:56:27;;;;;;;;;;;;;;;5.75;47.90;101850.09;5022796;28;19921;-80
2022/04/03 07:58:52;;;;;;;;;;;;;;;5.73;46.84;101846.63;5025523;28;19932;-81
2022/04/03 08:01:18;;;;;;;;;;;;;;;5.82;47.02;101855.38;5027856;28;20300;-81
2022/04/03 08:03:43;;;;;;;;;;;;;;;5.69;46.95;101856.03;5028293;28;20397;-81
2022/04/03 08:06:09;;;;;;;;;;;;;;;5.56;47.18;101855.81;5026471;28;19929;-75
2022/04/03 08:08:35;;;;;;;;;;;;;;;5.77;47.09;101854.41;5020095;28;19937;-76
2022/04/03 08:11:00;;;;;;;;;;;;;;;5.53;48.30;101855.75;5027458;28;19932;-77
2022/04/03 08:13:25;;;;;;;;;;;;;;;5.49;49.01;101854.84;5040320;28;20015;-77
2022/04/03 08:15:51;;;;;;;;;;;;;;;6.04;46.86;101848.81;5022007;28;20017;-77
2022/04/03 08:18:16;;;;;;;;;;;;;;;6.14;47.69;101850.69;5028536;28;20306;-78
2022/04/03 08:20:43;;;;;;;;;;;;;;;5.97;49.06;101857.34;5027727;28;19947;-77
2022/04/03 08:23:09;;;;;;;;;;;;;;;5.74;48.34;101853.53;5030227;28;19933;-77
2022/04/03 08:25:34;;;;;;;;;;;;;;;5.76;46.98;101854.41;5032350;28;19917;-76
2022/04/03 08:28:02;;;;;;;;;;;;;;;5.67;47.29;101862.00;5027921;28;20300;-76
2022/04/03 08:30:29;;;;;;;;;;;;;;;5.46;48.61;101854.78;5027497;28;19923;-77
2022/04/03 08:32:55;;;;;;;;;;;;;;;5.54;47.19;101863.50;5028392;28;19921;-77
2022/04/03 08:35:21;;;;;;;;;;;;;;;5.83;46.44;101867.41;5027205;28;20565;-80
2022/04/03 08:37:47;;;;;;;;;;;;;;;5.83;46.39;101867.41;5027687;28;19913;-75
2022/04/03 08:40:13;;;;;;;;;;;;;;;5.64;48.76;101865.41;5034283;28;19936;-75
2022/04/03 08:42:39;;;;;;;;;;;;;;;5.91;48.41;101863.28;5020849;28;20606;-75
2022/04/03 08:45:05;;;;;;;;;;;;;;;5.85;47.58;101863.16;5026460;28;20298;-80
2022/04/03 08:47:30;;;;;;;;;;;;;;;6.02;45.86;101858.25;5022269;28;19936;-78
2022/04/03 08:50:00;;;;;;;;;;;;;;;6.06;46.70;101857.47;5026562;28;19925;-75
2022/04/03 08:52:29;;;;;;;;;;;;;;;5.87;48.81;101861.47;5026375;28;19929;-75
2022/04/03 08:54:55;;;;;;;;;;;;;;;5.98;47.67;101856.47;5030091;28;20275;-80
2022/04/03 08:57:21;;;;;;;;;;;;;;;6.12;46.29;101854.97;5026736;28;19928;-78
2022/04/03 08:59:46;;;;;;;;;;;;;;;5.78;47.64;101861.31;5040502;28;19921;-77
2022/04/03 09:02:12;;;;;;;;;;;;;;;6.02;46.61;101858.25;5023258;28;19967;-79
2022/04/03 09:04:38;;;;;;;;;;;;;;;6.00;47.12;101859.97;5026804;28;19917;-75
2022/04/03 09:07:03;;;;;;;;;;;;;;;6.13;45.40;101861.84;5026886;28;19921;-75
2022/04/03 09:09:29;;;;;;;;;;;;;;;6.25;45.00;101862.03;5025652;28;19929;-79
2022/04/03 09:12:07;;;;;;;;;;;;;;;6.17;46.26;101858.47;5036067;28;20575;-80
2022/04/03 09:14:33;;;;;;;;;;;;;;;5.72;44.93;101860.34;5028367;28;20405;-79
2022/04/03 09:16:59;;;;;;;;;;;;;;;6.01;44.20;101848.78;5026458;28;20362;-80
2022/04/03 09:19:32;;;;;;;;;;;;;;;6.00;43.84;101858.25;5043732;28;20003;-80
2022/04/03 09:21:57;;;;;;;;;;;;;;;6.11;41.87;101858.41;5038368;28;19939;-80
2022/04/03 09:24:22;;;;;;;;;;;;;;;6.03;41.12;101847.97;5032201;28;19925;-80
2022/04/03 09:26:56;;;;;;;;;;;;;;;6.20;40.83;101852.50;5032064;28;19964;-75
2022/04/03 09:29:21;;;;;;;;;;;;;;;6.34;41.59;101858.72;5028051;28;20017;-75
2022/04/03 09:31:47;;;;;;;;;;;;;;;6.42;41.22;101852.84;5026132;28;20020;-79
2022/04/03 09:34:16;;;;;;;;;;;;;;;6.29;42.10;101850.91;5028666;28;20306;-79
2022/04/03 09:36:41;;;;;;;;;;;;;;;6.52;41.75;101848.66;5026706;28;19921;-79
2022/04/03 09:39:12;;;;;;;;;;;;;;;6.30;40.45;101849.22;5029770;28;20346;-79
2022/04/03 09:41:54;;;;;;;;;;;;;;;6.25;39.72;101850.84;5029015;28;20666;-79
2022/04/03 09:44:23;;;;;;;;;;;;;;;6.32;38.28;101850.09;5026538;28;19928;-79
2022/04/03 09:47:08;;;;;;;;;;;;;;;6.30;40.53;101852.66;5037791;28;20302;-79
2022/04/03 09:49:33;;;;;;;;;;;;;;;6.41;39.77;101855.38;5029817;28;20297;-79
2022/04/03 09:51:59;;;;;;;;;;;;;;;6.14;41.24;101848.13;5041447;28;20589;-79
2022/04/03 09:54:24;;;;;;;;;;;;;;;6.63;39.62;101854.84;5030354;28;19932;-79
2022/04/03 09:56:50;;;;;;;;;;;;;;;6.76;39.29;101848.97;5029415;28;20360;-80
2022/04/03 09:59:16;;;;;;;;;;;;;;;6.60;34.22;101852.22;5029858;28;20341;-81
2022/04/03 10:01:41;;;;;;;;;;;;;;;6.61;36.32;101848.78;5031510;28;20017;-80
2022/04/03 10:04:10;;;;;;;;;;;;;;;6.67;37.58;101846.28;5035930;28;19978;-75
2022/04/03 10:06:38;;;;;;;;;;;;;;;6.85;36.35;101843.91;5023308;28;20465;-75
2022/04/03 10:09:03;;;;;;;;;;;;;;;6.50;36.75;101846.06;5030698;28;20638;-75
2022/04/03 10:11:29;;;;;;;;;;;;;;;6.43;39.39;101843.34;5031715;28;19925;-75
2022/04/03 10:13:55;;;;;;;;;;;;;;;6.73;37.08;101837.72;5032569;28;19936;-76
2022/04/03 10:16:21;;;;;;;;;;;;;;;6.91;38.71;101835.34;5030001;28;19964;-75
2022/04/03 10:18:47;;;;;;;;;;;;;;;6.94;38.57;101828.50;5030644;28;19921;-75
2022/04/03 10:21:19;;;;;;;;;;;;;;;6.68;36.77;101831.66;5029499;28;20339;-75
2022/04/03 10:23:45;;;;;;;;;;;;;;;6.82;34.73;101833.53;5035922;28;20305;-75
2022/04/03 10:26:12;;;;;;;;;;;;;;;6.88;36.26;101833.63;5034096;28;19921;-77
2022/04/03 10:28:40;;;;;;;;;;;;;;;6.28;35.87;101835.41;5028444;28;20309;-77
2022/04/03 10:31:08;;;;;;;;;;;;;;;6.75;33.61;101829.16;5027644;28;19920;-77
2022/04/03 10:33:38;;;;;;;;;;;;;;;6.86;33.41;101826.69;5029004;28;19929;-77
2022/04/03 10:36:05;;;;;;;;;;;;;;;6.55;34.74;101836.66;5023701;28;19925;-80
2022/04/03 10:38:34;;;;;;;;;;;;;;;6.62;35.15;101835.03;5031169;28;19925;-80
2022/04/03 10:40:59;;;;;;;;;;;;;;;6.91;33.99;101820.72;5030130;28;19936;-81
2022/04/03 10:43:25;;;;;;;;;;;;;;;6.97;34.80;101814.75;5043835;28;20442;-81
2022/04/03 10:45:51;;;;;;;;;;;;;;;6.77;35.50;101829.19;5017551;28;19921;-78
2022/04/03 10:48:20;;;;;;;;;;;;;;;6.75;35.09;101826.56;5027358;28;20433;-78
2022/04/03 10:51:12;;;;;;;;;;;;;;;7.07;35.67;101824.34;5023960;28;19928;-77
2022/04/03 10:53:41;;;;;;;;;;;;;;;6.96;37.74;101819.06;5017138;28;19933;-78
2022/04/03 10:56:10;;;;;;;;;;;;;;;7.19;37.10;101816.72;5041734;28;19921;-79
2022/04/03 10:58:40;;;;;;;;;;;;;;;7.26;35.19;101823.66;5019719;28;19929;-79
2022/04/03 11:01:08;;;;;;;;;;;;;;;7.32;34.73;101808.22;5032910;28;19937;-79
2022/04/03 11:03:34;;;;;;;;;;;;;;;7.06;36.69;101810.56;5027835;28;19921;-79
2022/04/03 11:06:17;;;;;;;;;;;;;;;7.26;34.75;101808.16;5027233;28;19921;-79
2022/04/03 11:08:43;;;;;;;;;;;;;;;7.29;34.43;101812.47;5030689;28;20020;-75
2022/04/03 11:11:09;;;;;;;;;;;;;;;7.17;34.21;101812.41;5025331;28;19925;-75
2022/04/03 11:13:34;;;;;;;;;;;;;;;7.05;35.26;101806.22;5026387;28;19921;-76
2022/04/03 11:16:02;;;;;;;;;;;;;;;7.39;35.12;101809.13;5030769;28;19913;-76
2022/04/03 11:18:32;;;;;;;;;;;;;;;7.13;35.40;101806.31;5027753;28;19932;-75
2022/04/03 11:21:11;;;;;;;;;;;;;;;7.03;35.21;101801.91;5029474;28;19917;-75
2022/04/03 11:23:38;;;;;;;;;;;;;;;6.81;34.72;101813.72;5021636;28;19931;-75
2022/04/03 11:26:04;;;;;;;;;;;;;;;6.95;35.72;101801.84;5027141;28;20409;-75
2022/04/03 11:28:31;;;;;;;;;;;;;;;7.27;34.25;101790.94;5028320;28;19924;-80
2022/04/03 11:30:56;;;;;;;;;;;;;;;7.19;35.36;101784.84;5038379;28;19929;-81
2022/04/03 11:33:22;;;;;;;;;;;;;;;7.31;35.30;101792.72;5026486;28;19983;-80
2022/04/03 11:35:47;;;;;;;;;;;;;;;7.11;34.85;101790.78;5012253;28;19925;-76
2022/04/03 11:38:13;;;;;;;;;;;;;;;7.10;35.12;101789.09;5028744;28;20374;-75
2022/04/03 11:40:39;;;;;;;;;;;;;;;7.12;35.94;101787.38;5031172;28;19970;-75
2022/04/03 11:43:09;;;;;;;;;;;;;;;7.45;36.05;101783.34;5028551;28;19914;-75
2022/04/03 11:45:34;;;;;;;;;;;;;;;7.16;36.26;101777.06;5028241;28;20377;-75
2022/04/03 11:48:16;;;;;;;;;;;;;;;7.37;36.09;101774.66;5028046;28;19943;-75
2022/04/03 11:50:41;;;;;;;;;;;;;;;7.45;35.61;101766.13;5020223;28;19964;-75
2022/04/03 11:53:10;;;;;;;;;;;;;;;7.49;36.97;101764.41;5023755;28;19979;-80
2022/04/03 11:55:36;;;;;;;;;;;;;;;7.44;37.30;101764.38;5027414;28;19925;-80
2022/04/03 11:58:04;;;;;;;;;;;;;;;7.39;35.10;101760.91;5024320;28;19924;-76
2022/04/03 12:00:30;;;;;;;;;;;;;;;7.75;34.34;101757.69;5030588;28;19928;-76
2022/04/03 12:02:59;;;;;;;;;;;;;;;7.74;34.62;101753.38;5026831;28;19921;-81
2022/04/03 12:05:24;;;;;;;;;;;;;;;7.83;33.91;101756.03;5028295;28;19975;-76
2022/04/03 12:07:50;;;;;;;;;;;;;;;7.92;34.16;101753.50;5030645;28;19961;-76
2022/04/03 12:10:26;;;;;;;;;;;;;;;7.69;35.71;101748.19;5027545;28;19929;-76
2022/04/03 12:12:53;;;;;;;;;;;;;;;7.81;34.39;101752.56;5026000;28;19921;-76
2022/04/03 12:15:22;;;;;;;;;;;;;;;7.77;34.71;101747.34;5031214;28;19921;-82
2022/04/03 12:17:54;;;;;;;;;;;;;;;8.02;34.50;101744.06;5030919;28;19928;-80
2022/04/03 12:20:19;;;;;;;;;;;;;;;8.06;34.97;101738.88;5031822;28;19990;-78
2022/04/03 12:22:48;;;;;;;;;;;;;;;7.97;33.56;101727.66;5036155;28;20389;-77
2022/04/03 12:25:14;;;;;;;;;;;;;;;7.77;35.21;101729.25;5035115;28;19968;-81
2022/04/03 12:27:39;;;;;;;;;;;;;;;7.81;33.48;101731.00;5061611;28;20395;-81
2022/04/03 12:30:07;;;;;;;;;;;;;;;8.02;35.23;101737.16;5032897;28;19921;-80
2022/04/03 12:32:35;;;;;;;;;;;;;;;7.80;35.99;101745.66;5039244;28;19929;-78
2022/04/03 12:35:01;;;;;;;;;;;;;;;8.04;33.71;101731.97;5037461;28;19922;-82
2022/04/03 12:37:27;;;;;;;;;;;;;;;8.14;35.02;101733.78;5034775;28;19974;-81
2022/04/03 12:39:53;;;;;;;;;;;;;;;7.86;35.87;101739.66;5029979;28;19943;-81
2022/04/03 12:42:25;;;;;;;;;;;;;;;7.78;34.65;101737.03;5031714;28;19921;-77